createdAt,value
2019-05-13T00:00:47.859Z,99.90
2019-05-13T00:03:18.363Z,99.90
2019-05-13T00:05:48.876Z,99.90
2019-05-13T00:08:21.783Z,99.90
2019-05-13T00:10:50.027Z,99.90
2019-05-13T00:13:20.493Z,99.90
2019-05-13T00:15:50.912Z,99.90
2019-05-13T00:18:23.343Z,99.90
2019-05-13T00:20:54.037Z,99.90
2019-05-13T00:23:23.358Z,99.90
2019-05-13T00:25:54.589Z,99.90
2019-05-13T00:28:23.640Z,99.90
2019-05-13T00:30:54.374Z,99.90
2019-05-13T00:35:54.385Z,99.90
2019-05-13T00:38:24.955Z,99.90
2019-05-13T00:40:55.404Z,99.90
2019-05-13T00:43:25.940Z,99.90
2019-05-13T00:45:56.464Z,99.90
2019-05-13T00:48:29.624Z,99.90
2019-05-13T00:50:57.521Z,99.90
2019-05-13T00:53:27.934Z,99.90
2019-05-13T00:55:58.237Z,99.90
2019-05-13T00:58:28.590Z,99.90
2019-05-13T01:00:59.127Z,99.90
2019-05-13T01:03:29.560Z,99.90
2019-05-13T01:05:59.773Z,99.90
2019-05-13T01:08:30.172Z,99.90
2019-05-13T01:11:00.832Z,99.90
2019-05-13T01:13:31.136Z,99.90
2019-05-13T01:16:03.516Z,99.90
2019-05-13T01:21:04.184Z,99.90
2019-05-13T01:23:34.372Z,99.90
2019-05-13T01:26:03.985Z,99.90
2019-05-13T01:31:04.170Z,99.90
2019-05-13T01:33:35.090Z,99.90
2019-05-13T01:36:05.432Z,99.90
2019-05-13T01:38:35.320Z,99.90
2019-05-13T01:42:29.911Z,99.90
2019-05-13T01:45:00.308Z,99.90
2019-05-13T01:47:30.763Z,99.90
2019-05-13T01:50:03.409Z,99.90
2019-05-13T01:52:33.862Z,99.90
2019-05-13T01:55:03.980Z,99.90
2019-05-13T01:57:34.288Z,99.90
2019-05-13T02:00:04.727Z,99.90
2019-05-13T02:02:34.596Z,99.90
2019-05-13T02:05:05.151Z,99.90
2019-05-13T02:10:05.550Z,99.90
2019-05-13T02:12:35.948Z,99.90
2019-05-13T02:15:06.479Z,99.90
2019-05-13T02:17:36.708Z,99.90
2019-05-13T02:20:07.334Z,99.90
2019-05-13T02:22:37.869Z,99.90
2019-05-13T02:25:08.569Z,99.90
2019-05-13T02:27:38.972Z,99.90
2019-05-13T02:30:09.414Z,99.90
2019-05-13T02:32:42.529Z,99.90
2019-05-13T02:35:13.578Z,99.90
2019-05-13T02:37:43.482Z,99.90
2019-05-13T02:40:13.545Z,99.90
2019-05-13T02:42:43.699Z,99.90
2019-05-13T02:45:12.921Z,99.90
2019-05-13T02:47:44.151Z,99.90
2019-05-13T02:50:14.046Z,99.90
2019-05-13T02:52:44.736Z,99.90
2019-05-13T02:55:15.331Z,99.90
2019-05-13T02:57:45.908Z,99.90
2019-05-13T03:00:16.540Z,99.90
2019-05-13T03:02:46.934Z,99.90
2019-05-13T03:05:17.553Z,99.90
2019-05-13T03:07:48.113Z,99.90
2019-05-13T03:10:18.609Z,99.90
2019-05-13T03:12:49.051Z,99.90
2019-05-13T03:15:22.916Z,99.90
2019-05-13T03:17:54.973Z,99.90
2019-05-13T03:20:25.347Z,99.90
2019-05-13T03:22:55.720Z,99.90
2019-05-13T03:25:26.182Z,99.90
2019-05-13T03:27:56.731Z,99.90
2019-05-13T03:30:28.852Z,99.90
2019-05-13T03:33:04.047Z,99.90
2019-05-13T03:35:35.968Z,99.90
2019-05-13T03:38:03.394Z,99.90
2019-05-13T03:40:32.915Z,99.90
2019-05-13T03:43:03.110Z,99.90
2019-05-13T03:45:33.299Z,99.90
2019-05-13T03:48:04.481Z,99.90
2019-05-13T03:50:34.872Z,99.90
2019-05-13T03:53:04.821Z,99.90
2019-05-13T03:55:35.500Z,99.90
2019-05-13T03:58:06.052Z,99.90
2019-05-13T04:00:36.689Z,99.90
2019-05-13T04:03:07.248Z,99.90
2019-05-13T04:05:43.433Z,99.90
2019-05-13T04:08:12.995Z,99.90
2019-05-13T04:10:42.148Z,99.90
2019-05-13T04:13:12.543Z,99.90
2019-05-13T04:15:42.944Z,99.90
2019-05-13T04:18:12.791Z,99.90
2019-05-13T04:20:43.237Z,99.90
2019-05-13T04:23:13.700Z,99.90
2019-05-13T04:25:44.859Z,99.90
2019-05-13T04:28:14.957Z,99.90
2019-05-13T04:30:45.493Z,99.90
2019-05-13T04:33:16.036Z,99.90
2019-05-13T04:35:46.420Z,99.90
2019-05-13T04:38:16.882Z,99.90
2019-05-13T04:40:47.368Z,99.90
2019-05-13T04:43:17.930Z,99.90
2019-05-13T04:45:48.564Z,99.90
2019-05-13T04:48:19.020Z,99.90
2019-05-13T04:50:49.610Z,99.90
2019-05-13T04:53:22.734Z,99.90
2019-05-13T04:55:52.673Z,99.90
2019-05-13T04:58:23.540Z,99.90
2019-05-13T05:01:23.467Z,99.90
2019-05-13T05:03:57.459Z,99.90
2019-05-13T05:06:35.877Z,99.90
2019-05-13T05:09:12.540Z,99.90
2019-05-13T05:12:02.171Z,99.90
2019-05-13T05:14:37.612Z,99.90
2019-05-13T05:17:52.145Z,99.90
2019-05-13T05:20:35.336Z,99.90
2019-05-13T05:25:55.928Z,99.90
2019-05-13T05:28:51.890Z,99.90
2019-05-13T05:31:32.949Z,99.90
2019-05-13T05:34:43.010Z,99.90
2019-05-13T05:37:23.609Z,99.90
2019-05-13T05:39:55.059Z,99.90
2019-05-13T05:42:26.303Z,99.90
2019-05-13T05:44:57.042Z,99.90
2019-05-13T05:47:27.679Z,99.90
2019-05-13T05:49:58.376Z,99.90
2019-05-13T05:52:31.491Z,99.90
2019-05-13T05:55:02.277Z,99.90
2019-05-13T05:57:31.402Z,99.90
2019-05-13T06:00:02.657Z,99.90
2019-05-13T06:02:33.253Z,99.90
2019-05-13T06:05:04.377Z,99.90
2019-05-13T06:07:35.399Z,99.90
2019-05-13T06:10:06.005Z,99.90
2019-05-13T06:12:36.747Z,99.90
2019-05-13T06:15:07.159Z,99.90
2019-05-13T06:17:37.606Z,99.90
2019-05-13T06:20:08.062Z,99.90
2019-05-13T06:22:38.664Z,99.90
2019-05-13T06:25:09.192Z,99.90
2019-05-13T06:27:42.097Z,99.90
2019-05-13T06:30:12.562Z,99.90
2019-05-13T06:32:41.912Z,99.90
2019-05-13T06:35:11.604Z,99.90
2019-05-13T06:37:41.861Z,99.90
2019-05-13T06:40:12.793Z,99.90
2019-05-13T06:42:43.304Z,99.90
2019-05-13T06:45:13.987Z,99.90
2019-05-13T06:47:44.387Z,99.90
2019-05-13T06:50:14.891Z,99.90
2019-05-13T06:52:45.350Z,99.90
2019-05-13T06:55:15.923Z,99.90
2019-05-13T07:00:15.957Z,99.90
2019-05-13T07:05:16.205Z,99.90
2019-05-13T07:07:46.575Z,99.90
2019-05-13T07:10:16.996Z,99.90
2019-05-13T07:12:47.663Z,99.90
2019-05-13T07:15:18.308Z,99.90
2019-05-13T07:17:48.832Z,99.90
2019-05-13T07:20:22.344Z,99.90
2019-05-13T07:22:52.955Z,99.90
2019-05-13T07:25:22.168Z,99.90
2019-05-13T07:27:51.490Z,99.90
2019-05-13T07:30:26.316Z,99.90
2019-05-13T07:32:56.846Z,99.90
2019-05-13T07:35:30.773Z,99.90
2019-05-13T07:37:57.902Z,99.90
2019-05-13T07:40:28.768Z,99.90
2019-05-13T07:43:01.549Z,99.90
2019-05-13T07:45:31.609Z,99.90
2019-05-13T07:48:01.406Z,99.90
2019-05-13T07:50:32.244Z,99.90
2019-05-13T07:53:02.287Z,99.90
2019-05-13T07:55:31.710Z,99.90
2019-05-13T07:58:02.240Z,99.90
2019-05-13T08:00:32.743Z,99.90
2019-05-13T08:03:02.981Z,99.90
2019-05-13T08:05:33.479Z,99.90
2019-05-13T08:08:04.127Z,99.90
2019-05-13T08:10:34.663Z,99.90
2019-05-13T08:13:05.252Z,99.90
2019-05-13T08:15:35.596Z,99.90
2019-05-13T08:18:06.094Z,99.90
2019-05-13T08:20:36.537Z,99.90
2019-05-13T08:23:07.061Z,99.90
2019-05-13T08:25:37.677Z,99.90
2019-05-13T08:28:08.160Z,99.90
2019-05-13T08:30:38.549Z,99.90
2019-05-13T08:33:09.025Z,99.90
2019-05-13T08:40:51.160Z,99.90
2019-05-13T08:43:19.402Z,99.90
2019-05-13T08:45:51.672Z,99.90
2019-05-13T08:48:22.194Z,99.90
2019-05-13T08:50:52.188Z,99.90
2019-05-13T08:53:21.655Z,99.90
2019-05-13T08:55:52.072Z,99.90
2019-05-13T08:58:22.442Z,99.90
2019-05-13T09:00:54.203Z,99.90
2019-05-13T09:03:24.900Z,99.90
2019-05-13T09:05:55.582Z,99.90
2019-05-13T09:08:26.102Z,99.90
2019-05-13T09:10:57.267Z,99.90
2019-05-13T09:13:27.077Z,99.90
2019-05-13T09:15:57.553Z,99.90
2019-05-13T09:18:28.078Z,99.90
2019-05-13T09:20:58.509Z,99.90
2019-05-13T09:23:31.134Z,99.90
2019-05-13T09:26:02.661Z,99.90
2019-05-13T09:28:32.458Z,99.90
2019-05-13T09:31:02.150Z,99.90
2019-05-13T09:33:32.863Z,99.90
2019-05-13T09:36:03.121Z,99.90
2019-05-13T09:38:33.427Z,99.90
2019-05-13T09:41:03.855Z,99.90
2019-05-13T09:43:34.250Z,99.90
2019-05-13T09:46:04.758Z,99.90
2019-05-13T09:48:35.081Z,99.90
2019-05-13T09:51:05.663Z,99.90
2019-05-13T09:53:36.396Z,99.90
2019-05-13T09:56:06.842Z,99.90
2019-05-13T09:58:37.146Z,99.90
2019-05-13T10:01:07.651Z,99.90
2019-05-13T10:06:07.835Z,99.90
2019-05-13T10:08:38.237Z,99.90
2019-05-13T10:11:08.566Z,99.90
2019-05-13T10:13:38.857Z,99.90
2019-05-13T10:16:12.239Z,99.90
2019-05-13T10:18:42.099Z,99.90
2019-05-13T10:21:10.390Z,99.90
2019-05-13T10:23:41.898Z,99.90
2019-05-13T10:26:13.993Z,99.90
2019-05-13T10:28:42.805Z,99.90
2019-05-13T10:31:13.041Z,99.90
2019-05-13T10:33:43.469Z,99.90
2019-05-13T10:36:14.078Z,99.90
2019-05-13T10:38:44.586Z,99.90
2019-05-13T10:41:15.107Z,99.90
2019-05-13T10:43:45.538Z,99.90
2019-05-13T10:46:15.955Z,99.90
2019-05-13T10:48:46.363Z,99.90
2019-05-13T10:51:16.870Z,99.90
2019-05-13T10:53:47.280Z,99.90
2019-05-13T10:56:17.759Z,99.90
2019-05-13T10:58:48.078Z,99.90
2019-05-13T11:01:18.579Z,99.90
2019-05-13T11:06:18.876Z,99.90
2019-05-13T11:08:49.189Z,99.90
2019-05-13T11:11:21.936Z,99.90
2019-05-13T11:13:58.084Z,99.90
2019-05-13T11:16:22.583Z,99.90
2019-05-13T11:18:52.052Z,99.90
2019-05-13T11:21:22.442Z,99.90
2019-05-13T11:23:52.430Z,99.90
2019-05-13T11:26:24.320Z,99.90
2019-05-13T11:28:54.690Z,99.90
2019-05-13T11:31:25.086Z,99.90
2019-05-13T11:33:55.502Z,99.90
2019-05-13T11:36:25.930Z,99.90
2019-05-13T11:38:56.355Z,99.90
2019-05-13T11:41:26.797Z,99.90
2019-05-13T11:44:11.891Z,99.90
2019-05-13T11:46:27.681Z,99.90
2019-05-13T11:48:57.996Z,99.90
2019-05-13T11:51:28.808Z,99.90
2019-05-13T11:54:01.755Z,99.90
2019-05-13T11:56:33.404Z,99.90
2019-05-13T11:59:04.062Z,99.90
2019-05-13T12:01:33.466Z,99.90
2019-05-13T12:04:02.842Z,99.90
2019-05-13T12:06:33.955Z,99.90
2019-05-13T12:09:03.108Z,99.90
2019-05-13T12:11:33.499Z,99.90
2019-05-13T12:14:03.352Z,99.90
2019-05-13T12:16:35.028Z,99.90
2019-05-13T12:19:04.374Z,99.90
2019-05-13T12:21:41.591Z,99.90
2019-05-13T12:24:10.330Z,99.90
2019-05-13T12:26:35.717Z,99.90
2019-05-13T12:29:06.210Z,99.90
2019-05-13T12:31:36.551Z,99.90
2019-05-13T12:34:07.035Z,99.90
2019-05-13T12:36:37.535Z,99.90
2019-05-13T12:39:08.451Z,99.90
2019-05-13T12:44:02.173Z,99.90
2019-05-13T12:46:32.441Z,99.90
2019-05-13T12:49:04.051Z,99.90
2019-05-13T12:51:33.469Z,99.90
2019-05-13T12:54:04.082Z,99.90
2019-05-13T12:56:54.732Z,99.90
2019-05-13T12:59:25.270Z,99.90
2019-05-13T13:01:55.686Z,99.90
2019-05-13T13:04:26.010Z,99.90
2019-05-13T13:06:56.334Z,99.90
2019-05-13T13:09:26.716Z,99.90
2019-05-13T13:11:56.919Z,99.80
2019-05-13T13:14:35.040Z,99.90
2019-05-13T13:16:57.978Z,98.80
2019-05-13T13:19:28.405Z,98.40
2019-05-13T13:22:03.228Z,99.90
2019-05-13T13:24:31.595Z,99.90
2019-05-13T13:26:59.818Z,99.90
2019-05-13T13:29:33.669Z,98.70
2019-05-13T13:32:02.931Z,99.90
2019-05-13T13:34:33.765Z,99.90
2019-05-13T13:37:06.455Z,99.90
2019-05-13T13:39:36.757Z,99.90
2019-05-13T13:42:07.542Z,99.90
2019-05-13T13:44:37.870Z,99.90
2019-05-13T13:47:08.272Z,99.90
2019-05-13T13:49:38.808Z,99.90
2019-05-13T13:52:14.159Z,99.90
2019-05-13T13:54:44.139Z,96.30
2019-05-13T13:57:13.396Z,92.70
2019-05-13T14:00:14.819Z,94.30
2019-05-13T14:02:13.459Z,90.80
2019-05-13T14:04:42.969Z,91.40
2019-05-13T14:07:34.968Z,92.80
2019-05-13T14:09:43.058Z,93.60
2019-05-13T14:12:13.553Z,93.10
2019-05-13T14:14:44.412Z,92.40
2019-05-13T14:17:14.775Z,90.50
2019-05-13T14:19:45.246Z,92.10
2019-05-13T14:22:15.754Z,91.70
2019-05-13T14:24:46.241Z,90.40
2019-05-13T14:27:17.047Z,91.30
2019-05-13T14:29:49.364Z,89.50
2019-05-13T14:32:17.937Z,85.80
2019-05-13T14:34:48.418Z,83.10
2019-05-13T14:37:19.510Z,84.40
2019-05-13T14:39:50.070Z,84.40
2019-05-13T14:42:22.783Z,89.10
2019-05-13T14:44:52.167Z,91.00
2019-05-13T14:47:21.909Z,92.10
2019-05-13T14:49:52.259Z,93.10
2019-05-13T14:52:22.750Z,90.80
2019-05-13T14:54:53.066Z,90.90
2019-05-13T14:57:23.393Z,90.90
2019-05-13T14:59:53.833Z,90.00
2019-05-13T15:02:24.190Z,90.30
2019-05-13T15:04:54.682Z,89.00
2019-05-13T15:07:24.991Z,81.50
2019-05-13T15:09:55.554Z,78.00
2019-05-13T15:12:25.952Z,78.80
2019-05-13T15:14:56.268Z,80.00
2019-05-13T15:17:26.666Z,80.70
2019-05-13T15:19:57.074Z,86.50
2019-05-13T15:22:27.490Z,87.60
2019-05-13T15:24:57.928Z,87.50
2019-05-13T15:27:31.460Z,87.50
2019-05-13T15:30:14.500Z,88.70
2019-05-13T15:32:31.924Z,90.40
2019-05-13T15:35:02.185Z,87.80
2019-05-13T15:37:32.193Z,83.30
2019-05-13T15:40:03.908Z,76.70
2019-05-13T15:42:32.008Z,77.10
2019-05-13T15:45:02.414Z,79.80
2019-05-13T15:47:32.710Z,84.70
2019-05-13T15:50:03.241Z,87.80
2019-05-13T15:52:33.698Z,89.80
2019-05-13T15:55:04.239Z,91.40
2019-05-13T15:57:34.522Z,92.00
2019-05-13T16:00:05.302Z,92.70
2019-05-13T16:02:35.807Z,93.30
2019-05-13T16:05:06.594Z,94.70
2019-05-13T16:07:36.818Z,94.40
2019-05-13T16:10:07.729Z,93.90
2019-05-13T16:12:38.234Z,94.10
2019-05-13T16:15:13.087Z,94.20
2019-05-13T16:17:44.115Z,94.60
2019-05-13T16:20:10.454Z,95.00
2019-05-13T16:22:42.054Z,94.60
2019-05-13T16:25:11.409Z,95.20
2019-05-13T16:27:42.094Z,95.60
2019-05-13T16:30:12.657Z,95.90
2019-05-13T16:32:42.950Z,97.50
2019-05-13T16:37:43.046Z,96.70
2019-05-13T16:40:13.580Z,98.20
2019-05-13T16:42:44.042Z,99.30
2019-05-13T16:45:14.709Z,99.90
2019-05-13T16:47:56.731Z,99.90
2019-05-13T16:50:15.806Z,99.90
2019-05-13T16:52:46.150Z,99.90
2019-05-13T16:55:16.740Z,99.90
2019-05-13T16:57:47.206Z,99.90
2019-05-13T17:00:18.042Z,97.80
2019-05-13T17:02:48.595Z,97.60
2019-05-13T17:05:19.182Z,98.60
2019-05-13T17:07:51.395Z,99.30
2019-05-13T17:10:22.348Z,99.90
2019-05-13T17:12:52.375Z,99.90
2019-05-13T17:15:21.344Z,99.90
2019-05-13T17:17:51.750Z,99.90
2019-05-13T17:20:22.362Z,99.90
2019-05-13T17:22:52.774Z,99.90
2019-05-13T17:25:23.145Z,99.90
2019-05-13T17:27:54.121Z,99.90
2019-05-13T17:30:24.955Z,99.90
2019-05-13T17:32:55.363Z,99.90
2019-05-13T17:35:25.791Z,99.90
2019-05-13T17:37:56.189Z,99.90
2019-05-13T17:42:56.182Z,99.90
2019-05-13T17:45:26.689Z,99.90
2019-05-13T17:47:57.070Z,99.90
2019-05-13T17:50:27.474Z,99.90
2019-05-13T17:52:57.826Z,99.90
2019-05-13T17:55:28.291Z,99.90
2019-05-13T17:58:01.259Z,99.90
2019-05-13T18:00:29.235Z,99.90
2019-05-13T18:03:01.751Z,99.90
2019-05-13T18:05:31.499Z,99.90
2019-05-13T18:08:01.887Z,99.90
2019-05-13T18:10:31.773Z,99.90
2019-05-13T18:13:01.870Z,99.90
2019-05-13T18:15:32.308Z,99.90
2019-05-13T18:18:03.043Z,99.90
2019-05-13T18:20:33.586Z,99.90
2019-05-13T18:23:04.218Z,99.90
2019-05-13T18:25:34.850Z,99.90
2019-05-13T18:28:05.630Z,99.90
2019-05-13T18:30:36.235Z,99.90
2019-05-13T18:33:11.825Z,99.90
2019-05-13T18:35:48.321Z,99.90
2019-05-13T18:38:23.500Z,99.90
2019-05-13T18:40:54.243Z,99.90
2019-05-13T18:43:24.761Z,99.90
2019-05-13T18:45:55.334Z,99.90
2019-05-13T18:48:25.864Z,99.90
2019-05-13T18:50:56.330Z,99.90
2019-05-13T18:53:26.751Z,99.90
2019-05-13T18:55:56.947Z,99.90
2019-05-13T18:58:27.363Z,99.90
2019-05-13T19:00:57.662Z,99.90
2019-05-13T19:03:28.135Z,99.90
2019-05-13T19:05:58.675Z,99.90
2019-05-13T19:08:29.052Z,99.90
2019-05-13T19:11:01.215Z,99.90
2019-05-13T19:13:32.467Z,99.90
2019-05-13T19:16:02.319Z,99.90
2019-05-13T19:18:32.044Z,99.90
2019-05-13T19:21:02.420Z,99.90
2019-05-13T19:23:32.958Z,99.90
2019-05-13T19:26:03.546Z,99.90
2019-05-13T19:28:34.098Z,99.90
2019-05-13T19:31:04.675Z,99.90
2019-05-13T19:33:35.863Z,99.90
2019-05-13T19:38:36.478Z,99.90
2019-05-13T19:41:07.067Z,99.90
2019-05-13T19:43:37.650Z,99.90
2019-05-13T19:46:08.571Z,99.90
2019-05-13T19:48:41.558Z,99.90
2019-05-13T19:51:09.972Z,99.90
2019-05-13T19:53:41.177Z,99.90
2019-05-13T19:58:41.098Z,99.90
2019-05-13T20:01:11.768Z,99.90
2019-05-13T20:03:42.533Z,99.90
2019-05-13T20:06:12.873Z,99.90
2019-05-13T20:08:43.158Z,99.90
2019-05-13T20:11:13.429Z,99.90
2019-05-13T20:13:43.982Z,99.90
2019-05-13T20:16:14.291Z,99.90
2019-05-13T20:18:44.821Z,99.90
2019-05-13T20:21:15.705Z,99.90
2019-05-13T20:23:46.178Z,99.90
2019-05-13T20:26:16.842Z,99.90
2019-05-13T20:28:47.446Z,99.90
2019-05-13T20:31:18.026Z,99.90
2019-05-13T20:33:48.443Z,99.90
2019-05-13T20:38:50.960Z,99.90
2019-05-13T20:41:19.483Z,99.90
2019-05-13T20:43:52.096Z,99.90
2019-05-13T20:46:22.969Z,99.90
2019-05-13T20:48:51.978Z,99.90
2019-05-13T20:51:22.087Z,99.90
2019-05-13T20:53:52.646Z,99.90
2019-05-13T20:56:23.202Z,99.90
2019-05-13T20:58:53.622Z,99.90
2019-05-13T21:01:24.222Z,99.90
2019-05-13T21:03:54.559Z,99.90
2019-05-13T21:06:25.134Z,99.90
2019-05-13T21:08:55.578Z,99.90
2019-05-13T21:11:26.250Z,99.90
2019-05-13T21:13:56.687Z,99.90
2019-05-13T21:16:27.302Z,99.90
2019-05-13T21:18:57.908Z,99.90
2019-05-13T21:21:28.526Z,99.90
2019-05-13T21:26:28.511Z,99.90
2019-05-13T21:28:59.009Z,99.90
2019-05-13T21:31:29.662Z,99.90
2019-05-13T21:34:01.353Z,99.90
2019-05-13T21:36:31.334Z,99.90
2019-05-13T21:39:01.851Z,99.90
2019-05-13T21:41:32.388Z,99.90
2019-05-13T21:44:02.922Z,99.90
2019-05-13T21:46:33.178Z,99.90
2019-05-13T21:49:03.347Z,99.90
2019-05-13T21:51:33.894Z,99.90
2019-05-13T21:54:04.017Z,99.90
2019-05-13T21:56:34.527Z,99.90
2019-05-13T21:59:05.194Z,99.90
2019-05-13T22:01:36.045Z,99.90
2019-05-13T22:04:06.593Z,99.90
2019-05-13T22:06:37.035Z,99.90
2019-05-13T22:09:08.650Z,99.90
2019-05-13T22:11:38.969Z,99.90
2019-05-13T22:14:11.156Z,99.90
2019-05-13T22:16:41.249Z,99.90
2019-05-13T22:19:12.305Z,99.90
2019-05-13T22:21:42.356Z,99.90
2019-05-13T22:24:11.758Z,99.90
2019-05-13T22:26:42.260Z,99.90
2019-05-13T22:29:12.674Z,99.90
2019-05-13T22:31:43.457Z,99.90
2019-05-13T22:34:13.782Z,99.90
2019-05-13T22:36:44.478Z,99.90
2019-05-13T22:39:14.811Z,99.90
2019-05-13T22:41:45.190Z,99.90
2019-05-13T22:44:15.586Z,99.90
2019-05-13T22:46:46.205Z,99.90
2019-05-13T22:49:16.542Z,99.90
2019-05-13T22:51:46.814Z,99.90
2019-05-13T22:54:17.166Z,99.90
2019-05-13T22:56:47.506Z,99.90
2019-05-13T22:59:17.818Z,99.90
2019-05-13T23:01:48.038Z,99.90
2019-05-13T23:04:18.417Z,99.90
2019-05-13T23:06:48.930Z,99.90
2019-05-13T23:09:21.480Z,99.90
2019-05-13T23:11:51.108Z,99.90
2019-05-13T23:14:22.005Z,99.90
2019-05-13T23:16:50.606Z,99.90
2019-05-13T23:19:21.690Z,99.90
2019-05-13T23:21:51.329Z,99.90
2019-05-13T23:26:51.645Z,99.90
2019-05-13T23:29:21.589Z,99.90
2019-05-13T23:31:52.159Z,99.90
2019-05-13T23:34:22.458Z,99.90
2019-05-13T23:36:52.890Z,99.90
2019-05-13T23:39:23.261Z,99.90
2019-05-13T23:41:53.785Z,99.90
2019-05-13T23:44:28.068Z,99.90
2019-05-13T23:46:54.577Z,99.90
2019-05-13T23:49:24.994Z,99.90
2019-05-13T23:51:55.482Z,99.90
2019-05-13T23:54:25.790Z,99.90
2019-05-13T23:56:56.110Z,99.90
2019-05-13T23:59:26.365Z,99.90
